Time;durP1;ratioP1;P1;durP2;ratioP2;P2;SDS_P1;SDS_P2;PMS_P1;PMS_P2;Temp;Humidity;BMP_temperature;BMP_pressure;BME280_temperature;BME280_humidity;BME280_pressure;Samples;Min_cycle;Max_cycle;Signal;HPM_P1;HPM_P2
2022/08/15 00:01:48;;;;;;;12.45;9.98;;;;;;;20.27;nan;99611.28;4989197;28;20392;-73
2022/08/15 00:04:14;;;;;;;12.02;10.20;;;;;;;20.22;nan;99608.75;4986870;28;20037;-74
2022/08/15 00:06:43;;;;;;;12.02;10.00;;;;;;;20.22;nan;99624.78;4987304;28;20058;-73
2022/08/15 00:09:18;;;;;;;12.32;9.75;;;;;;;20.16;nan;99645.53;4985187;28;20587;-72
2022/08/15 00:11:48;;;;;;;11.52;9.65;;;;;;;20.12;nan;99646.47;4986516;28;20030;-73
2022/08/15 00:14:18;;;;;;;12.25;10.63;;;;;;;19.95;nan;99629.22;4987252;28;20062;-74
2022/08/15 00:16:47;;;;;;;16.10;10.25;;;;;;;19.68;nan;99618.69;4971200;28;20041;-74
2022/08/15 00:19:16;;;;;;;12.15;10.23;;;;;;;19.81;nan;99635.75;4991031;28;20038;-73
2022/08/15 00:21:46;;;;;;;;;;;;;;;19.84;nan;99646.59;4984156;28;20404;-73
2022/08/15 00:24:15;;;;;;;12.63;9.68;;;;;;;19.73;nan;99640.72;4985348;28;19956;-73
2022/08/15 00:26:42;;;;;;;13.10;11.20;;;;;;;19.58;nan;99601.00;4979144;28;20056;-73
2022/08/15 00:29:08;;;;;;;13.77;11.00;;;;;;;19.72;nan;99616.97;4990250;28;20042;-73
2022/08/15 00:31:35;;;;;;;12.80;10.68;;;;;;;19.65;nan;99629.94;4984662;28;20036;-73
2022/08/15 00:34:02;;;;;;;14.50;10.90;;;;;;;19.69;nan;99625.63;4989482;28;20038;-74
2022/08/15 00:36:30;;;;;;;12.93;10.55;;;;;;;19.53;nan;99601.13;4984873;28;20473;-74
2022/08/15 00:38:59;;;;;;;15.88;10.50;;;;;;;19.54;nan;99624.06;4989213;28;20043;-73
2022/08/15 00:41:41;;;;;;;13.00;10.38;;;;;;;19.43;nan;99681.47;4988940;28;20042;-74
2022/08/15 00:44:19;;;;;;;12.63;10.88;;;;;;;19.37;nan;99631.94;4986309;28;20031;-73
2022/08/15 00:46:51;;;;;;;13.23;10.48;;;;;;;19.42;nan;99645.16;4981743;28;20035;-73
2022/08/15 00:49:17;;;;;;;13.48;11.18;;;;;;;19.45;nan;99650.72;4985512;28;20034;-73
2022/08/15 00:51:50;;;;;;;13.57;11.48;;;;;;;19.31;nan;99578.66;4986230;28;20120;-73
2022/08/15 00:54:30;;;;;;;14.55;10.68;;;;;;;19.48;nan;99591.34;4983417;28;20026;-73
2022/08/15 00:57:01;;;;;;;16.30;12.15;;;;;;;19.51;nan;99643.34;4986011;28;20045;-75
2022/08/15 00:59:31;;;;;;;15.80;10.85;;;;;;;19.52;nan;99640.38;4983708;28;20077;-74
2022/08/15 01:01:59;;;;;;;13.98;10.98;;;;;;;19.54;nan;99634.75;4989410;28;20038;-74
2022/08/15 01:04:26;;;;;;;16.33;11.02;;;;;;;19.52;nan;99655.63;4985901;28;20110;-74
2022/08/15 01:06:51;;;;;;;18.08;10.75;;;;;;;19.53;nan;99633.16;4985331;28;20038;-73
2022/08/15 01:09:18;;;;;;;12.68;10.68;;;;;;;19.52;nan;99636.94;4985928;28;20035;-74
2022/08/15 01:11:52;;;;;;;14.52;10.55;;;;;;;19.51;nan;99654.84;4985245;28;20035;-74
2022/08/15 01:14:18;;;;;;;14.52;11.38;;;;;;;;;;4985723;28;20053;-74
2022/08/15 01:16:43;;;;;;;15.57;11.45;;;;;;;19.40;nan;99589.41;4985259;28;20480;-74
2022/08/15 01:19:18;;;;;;;14.90;10.93;;;;;;;19.26;nan;99661.53;4985882;28;20631;-74
2022/08/15 01:21:49;;;;;;;15.07;11.55;;;;;;;19.22;nan;99671.22;4958693;28;20033;-74
2022/08/15 01:24:19;;;;;;;15.52;10.93;;;;;;;19.09;nan;99664.84;4988863;28;20034;-74
2022/08/15 01:26:45;;;;;;;15.43;11.18;;;;;;;18.86;nan;99605.28;4982716;28;20038;-74
2022/08/15 01:29:13;;;;;;;15.30;11.52;;;;;;;18.88;nan;99661.78;4981494;28;20038;-74
2022/08/15 01:31:38;;;;;;;12.85;10.93;;;;;;;;;;4968663;28;20544;-73
2022/08/15 01:34:04;;;;;;;17.47;11.43;;;;;;;18.97;nan;99645.09;4983855;28;20085;-74
2022/08/15 01:36:31;;;;;;;14.35;10.65;;;;;;;19.05;nan;99647.84;4987083;28;20280;-73
2022/08/15 01:39:16;;;;;;;14.85;11.02;;;;;;;19.03;nan;99631.31;4990392;28;20053;-73
2022/08/15 01:42:00;;;;;;;17.80;11.20;;;;;;;19.09;nan;99661.38;4979742;28;20034;-73
2022/08/15 01:44:28;;;;;;;14.98;11.13;;;;;;;19.09;nan;99662.16;4987345;28;20392;-74
2022/08/15 01:47:00;;;;;;;21.67;11.98;;;;;;;19.07;nan;99658.22;4987272;28;20094;-74
2022/08/15 01:49:39;;;;;;;14.07;11.35;;;;;;;19.03;nan;99678.56;4988135;28;20027;-73
2022/08/15 01:52:05;;;;;;;16.05;11.73;;;;;;;19.04;nan;99634.81;4970705;28;20057;-74
2022/08/15 01:54:44;;;;;;;15.35;11.85;;;;;;;19.09;nan;99651.50;4986792;28;20040;-73
2022/08/15 01:57:11;;;;;;;15.27;11.57;;;;;;;19.01;nan;99707.44;4986993;28;20030;-74
2022/08/15 01:59:37;;;;;;;16.58;11.52;;;;;;;18.88;nan;99640.44;4983717;28;20316;-74
2022/08/15 02:02:06;;;;;;;17.15;12.20;;;;;;;18.82;nan;99641.66;4991370;28;20554;-74
2022/08/15 02:04:37;;;;;;;14.77;11.82;;;;;;;18.83;nan;99637.91;4988610;28;20042;-74
2022/08/15 02:07:12;;;;;;;13.32;11.05;;;;;;;18.87;nan;99649.56;4988570;28;20097;-74
2022/08/15 02:09:40;;;;;;;18.23;12.05;;;;;;;;;;4988167;28;20050;-73
2022/08/15 02:12:08;;;;;;;15.57;11.97;;;;;;;18.89;nan;99631.38;4987332;28;20565;-74
2022/08/15 02:14:35;;;;;;;15.05;11.43;;;;;;;18.86;nan;99617.84;4988088;28;20260;-74
2022/08/15 02:17:01;;;;;;;14.50;10.73;;;;;;;18.85;nan;99617.06;4986850;28;20393;-74
2022/08/15 02:19:28;;;;;;;14.90;11.98;;;;;;;18.89;nan;99633.22;4984904;28;20516;-74
2022/08/15 02:21:54;;;;;;;15.65;12.30;;;;;;;18.87;nan;99628.22;4989440;28;20481;-74
2022/08/15 02:24:22;;;;;;;17.85;11.73;;;;;;;;;;4989247;28;20117;-74
2022/08/15 02:26:50;;;;;;;15.63;11.68;;;;;;;18.81;nan;99625.94;4985015;28;20066;-73
2022/08/15 02:29:15;;;;;;;16.35;11.82;;;;;;;18.83;nan;99627.22;4987219;28;20405;-74
2022/08/15 02:31:41;;;;;;;18.40;10.77;;;;;;;;;;4988635;28;20038;-74
2022/08/15 02:34:06;;;;;;;15.18;11.70;;;;;;;18.84;nan;99639.50;4971244;28;20046;-74
2022/08/15 02:36:34;;;;;;;13.88;11.35;;;;;;;18.85;nan;99635.72;4988369;28;20657;-75
2022/08/15 02:39:03;;;;;;;13.93;11.68;;;;;;;18.85;nan;99630.38;4990162;28;20038;-76
2022/08/15 02:41:32;;;;;;;22.92;10.90;;;;;;;18.85;nan;99640.28;4989328;28;20205;-74
2022/08/15 02:43:59;;;;;;;;;;;;;;;18.85;nan;99638.38;4986190;28;20114;-74
2022/08/15 02:46:25;;;;;;;88.18;39.22;;;;;;;18.85;nan;99619.72;4988629;28;19913;-74
2022/08/15 02:48:51;;;;;;;21.55;15.93;;;;;;;18.97;nan;99635.22;4974735;28;20050;-73
2022/08/15 02:51:18;;;;;;;16.67;12.27;;;;;;;;;;4988619;28;20402;-74
2022/08/15 02:53:50;;;;;;;13.57;11.02;;;;;;;18.93;nan;99660.91;4987534;28;20030;-75
2022/08/15 02:56:19;;;;;;;16.30;11.90;;;;;;;18.92;nan;99660.13;4977651;28;20481;-75
2022/08/15 02:58:44;;;;;;;16.40;11.20;;;;;;;;;;4991578;28;20089;-73
2022/08/15 03:01:10;;;;;;;18.98;11.93;;;;;;;;;;4988094;28;20898;-73
2022/08/15 03:03:41;;;;;;;15.18;11.38;;;;;;;18.66;nan;99656.34;4984577;28;20026;-75
2022/08/15 03:06:09;;;;;;;16.67;11.95;;;;;;;18.62;nan;99647.34;4988725;28;20026;-75
2022/08/15 03:08:37;;;;;;;13.98;11.40;;;;;;;18.63;nan;99651.63;4987642;28;20404;-74
2022/08/15 03:11:04;;;;;;;15.98;11.65;;;;;;;18.54;nan;99648.06;4986624;28;20030;-74
2022/08/15 03:13:31;;;;;;;17.83;12.40;;;;;;;18.50;nan;99709.16;4971907;28;20050;-74
2022/08/15 03:15:58;;;;;;;15.65;11.63;;;;;;;18.52;nan;99655.56;4989836;28;20030;-74
2022/08/15 03:18:26;;;;;;;15.90;11.48;;;;;;;18.51;nan;99654.78;4984829;28;20049;-74
2022/08/15 03:20:52;;;;;;;19.40;12.98;;;;;;;18.47;nan;99646.56;4971598;28;20034;-74
2022/08/15 03:23:25;;;;;;;22.60;12.63;;;;;;;18.41;nan;99662.94;4988150;28;20034;-73
2022/08/15 03:25:53;;;;;;;14.38;12.05;;;;;;;18.40;nan;99600.06;4991002;28;20049;-73
2022/08/15 03:28:19;;;;;;;16.65;12.32;;;;;;;;;;4984065;28;20046;-73
2022/08/15 03:30:45;;;;;;;14.48;11.93;;;;;;;18.44;nan;99643.72;4986695;28;20030;-74
2022/08/15 03:33:11;;;;;;;16.73;11.77;;;;;;;18.46;nan;99646.84;4988691;28;20034;-75
2022/08/15 03:35:41;;;;;;;16.08;12.00;;;;;;;18.44;nan;99657.81;4991765;28;20116;-74
2022/08/15 03:38:07;;;;;;;18.23;12.40;;;;;;;18.44;nan;99641.06;4995439;28;20035;-74
2022/08/15 03:40:33;;;;;;;15.48;11.75;;;;;;;18.43;nan;99645.56;4988004;28;20057;-73
2022/08/15 03:43:04;;;;;;;14.68;11.90;;;;;;;18.41;nan;99631.78;4982191;28;20052;-74
2022/08/15 03:45:30;;;;;;;14.10;11.73;;;;;;;;;;4989195;28;20034;-74
2022/08/15 03:47:55;;;;;;;16.20;12.60;;;;;;;18.40;nan;99656.03;4988131;28;20504;-73
2022/08/15 03:50:21;;;;;;;18.27;12.45;;;;;;;18.40;nan;99651.50;4992557;28;20893;-73
2022/08/15 03:52:57;;;;;;;18.13;12.13;;;;;;;18.39;nan;99641.13;4990225;28;20026;-74
2022/08/15 03:55:25;;;;;;;15.13;12.23;;;;;;;18.40;nan;99638.16;4976706;28;20034;-74
2022/08/15 03:57:52;;;;;;;16.77;12.23;;;;;;;18.37;nan;99628.09;4990004;28;20031;-74
2022/08/15 04:00:22;;;;;;;18.98;12.88;;;;;;;18.38;nan;99640.34;4989429;28;20041;-73
2022/08/15 04:02:47;;;;;;;17.95;12.52;;;;;;;;;;4990711;28;20061;-73
2022/08/15 04:05:13;;;;;;;16.65;13.02;;;;;;;18.36;nan;99636.38;4991573;28;20071;-74
2022/08/15 04:07:39;;;;;;;21.58;12.85;;;;;;;18.34;nan;99630.56;4986214;28;20030;-74
2022/08/15 04:10:12;;;;;;;16.83;12.50;;;;;;;18.24;nan;99626.22;4988455;28;20035;-73
2022/08/15 04:12:41;;;;;;;20.98;13.13;;;;;;;18.21;nan;99650.78;4990413;28;20085;-73
2022/08/15 04:15:09;;;;;;;16.60;13.60;;;;;;;18.21;nan;99632.91;4973568;28;20042;-74
2022/08/15 04:17:35;;;;;;;16.08;13.40;;;;;;;18.03;nan;99601.81;4991638;28;20049;-75
2022/08/15 04:20:01;;;;;;;19.58;13.65;;;;;;;18.07;nan;99629.44;4990832;28;20038;-74
2022/08/15 04:22:35;;;;;;;18.23;14.63;;;;;;;18.14;nan;99632.50;4992424;28;20038;-74
2022/08/15 04:25:10;;;;;;;18.42;14.40;;;;;;;18.19;nan;99634.28;4971978;28;20042;-75
2022/08/15 04:27:36;;;;;;;22.33;13.60;;;;;;;18.20;nan;99631.34;4990484;28;20488;-73
2022/08/15 04:30:03;;;;;;;20.02;14.77;;;;;;;18.25;nan;99697.09;4985095;28;20031;-73
2022/08/15 04:32:29;;;;;;;21.95;14.13;;;;;;;18.27;nan;99626.41;4986994;28;20089;-73
2022/08/15 04:34:58;;;;;;;18.08;14.10;;;;;;;;;;4987373;28;20034;-73
2022/08/15 04:37:25;;;;;;;18.90;14.75;;;;;;;18.33;nan;99640.44;4980483;28;20145;-73
2022/08/15 04:39:51;;;;;;;17.98;14.52;;;;;;;18.36;nan;99631.84;4984690;28;20037;-74
2022/08/15 04:42:19;;;;;;;18.85;15.18;;;;;;;;;;4985439;28;20026;-74
2022/08/15 04:44:48;;;;;;;20.50;15.88;;;;;;;18.42;nan;99622.69;4989404;28;20038;-74
2022/08/15 04:47:14;;;;;;;21.05;15.48;;;;;;;;;;4982617;28;20424;-74
2022/08/15 04:49:40;;;;;;;22.90;16.40;;;;;;;18.43;nan;99618.13;4988436;28;20084;-73
2022/08/15 04:52:16;;;;;;;22.25;16.15;;;;;;;18.50;nan;99634.53;4986330;28;20081;-73
2022/08/15 04:54:42;;;;;;;19.98;15.75;;;;;;;18.50;nan;99629.97;4975853;28;20051;-74
2022/08/15 04:57:09;;;;;;;24.23;15.85;;;;;;;18.54;nan;99645.41;4984866;28;20030;-73
2022/08/15 04:59:36;;;;;;;24.38;17.50;;;;;;;18.59;nan;99704.75;4982635;28;20490;-74
2022/08/15 05:02:02;;;;;;;22.77;16.55;;;;;;;;;;4984638;28;20041;-73
2022/08/15 05:04:27;;;;;;;21.85;15.98;;;;;;;18.58;nan;99655.19;4986452;28;20034;-74
2022/08/15 05:06:52;;;;;;;21.80;16.92;;;;;;;;;;4989388;28;20425;-72
2022/08/15 05:09:18;;;;;;;24.97;17.53;;;;;;;18.61;nan;99632.47;4986014;28;20084;-73
2022/08/15 05:11:43;;;;;;;23.77;17.42;;;;;;;;;;4980476;28;20031;-74
2022/08/15 05:14:08;;;;;;;26.65;18.25;;;;;;;18.66;nan;99635.03;4987706;28;20186;-73
2022/08/15 05:16:34;;;;;;;24.27;18.33;;;;;;;18.75;nan;99656.44;4990046;28;20030;-73
2022/08/15 05:19:00;;;;;;;23.50;17.95;;;;;;;18.81;nan;99650.72;4987022;28;20435;-74
2022/08/15 05:21:27;;;;;;;23.50;17.67;;;;;;;18.80;nan;99657.16;4991708;28;20453;-74
2022/08/15 05:23:53;;;;;;;29.05;19.52;;;;;;;18.88;nan;99666.34;4993467;28;20034;-74
2022/08/15 05:26:18;;;;;;;23.80;17.30;;;;;;;18.89;nan;99654.56;4990865;28;20034;-74
2022/08/15 05:28:44;;;;;;;24.75;17.85;;;;;;;18.96;nan;99667.50;4988953;28;20552;-74
2022/08/15 05:31:11;;;;;;;24.63;18.00;;;;;;;19.02;nan;99651.13;4988801;28;20034;-74
2022/08/15 05:33:39;;;;;;;25.45;18.88;;;;;;;19.09;nan;99666.72;4986861;28;20026;-74
2022/08/15 05:36:07;;;;;;;22.33;18.27;;;;;;;19.16;nan;99679.66;4989669;28;20038;-73
2022/08/15 05:38:38;;;;;;;23.38;18.30;;;;;;;19.22;nan;99676.56;4985927;28;20085;-73
2022/08/15 05:41:28;;;;;;;24.23;18.70;;;;;;;19.34;nan;99687.50;4986669;28;20126;-74
2022/08/15 05:44:01;;;;;;;25.33;18.42;;;;;;;19.46;nan;99675.53;4985401;28;20074;-73
2022/08/15 05:46:26;;;;;;;27.30;18.48;;;;;;;19.55;nan;99663.03;4987437;28;20031;-74
2022/08/15 05:49:20;;;;;;;25.10;18.75;;;;;;;19.62;nan;99678.63;4990001;28;20065;-74
2022/08/15 05:51:51;;;;;;;25.42;19.00;;;;;;;;;;4989206;28;20040;-74
2022/08/15 05:54:26;;;;;;;28.17;19.75;;;;;;;19.70;nan;99670.69;4973326;28;20038;-74
2022/08/15 05:57:09;;;;;;;29.10;20.85;;;;;;;19.76;nan;99690.88;4989301;28;20070;-74
2022/08/15 05:59:40;;;;;;;24.83;19.02;;;;;;;19.74;nan;99641.50;4985376;28;20031;-75
2022/08/15 06:02:18;;;;;;;23.38;18.77;;;;;;;19.88;nan;99671.63;4987723;28;20495;-74
2022/08/15 06:04:50;;;;;;;28.83;18.77;;;;;;;;;;4992767;28;20037;-75
2022/08/15 06:07:17;;;;;;;25.50;19.67;;;;;;;20.02;nan;99660.09;4987124;28;20061;-75
2022/08/15 06:09:46;;;;;;;25.42;18.38;;;;;;;;;;4987922;28;20034;-76
2022/08/15 06:12:20;;;;;;;26.27;19.25;;;;;;;20.21;nan;99674.03;4983171;28;20045;-74
2022/08/15 06:14:48;;;;;;;25.60;19.23;;;;;;;20.35;nan;99676.59;4989383;28;20096;-74
2022/08/15 06:17:22;;;;;;;30.88;21.15;;;;;;;20.46;nan;99655.72;4989053;28;20034;-74
2022/08/15 06:19:50;;;;;;;25.40;18.70;;;;;;;20.50;nan;99692.25;4987252;28;20397;-74
2022/08/15 06:22:21;;;;;;;25.42;19.65;;;;;;;20.53;nan;99690.84;4989967;28;20065;-77
2022/08/15 06:24:58;;;;;;;24.05;18.10;;;;;;;20.56;nan;99684.91;4983935;28;20113;-75
2022/08/15 06:27:38;;;;;;;28.30;19.73;;;;;;;20.66;nan;99694.53;4975360;28;20042;-74
2022/08/15 06:30:06;;;;;;;26.95;18.38;;;;;;;20.74;nan;99677.75;4987551;28;20030;-75
2022/08/15 06:32:44;;;;;;;26.08;19.42;;;;;;;20.82;nan;99691.13;4985275;28;20199;-75
2022/08/15 06:35:35;;;;;;;22.50;17.90;;;;;;;20.91;nan;99677.00;4988195;28;20067;-73
2022/08/15 06:38:19;;;;;;;24.52;18.98;;;;;;;20.98;nan;99696.84;4992206;28;20030;-75
2022/08/15 06:41:08;;;;;;;26.60;18.15;;;;;;;21.01;nan;99704.25;4990503;28;20488;-74
2022/08/15 06:43:34;;;;;;;23.80;17.98;;;;;;;21.13;nan;99692.94;4987268;28;20034;-75
2022/08/15 06:46:01;;;;;;;25.23;18.63;;;;;;;21.18;nan;99758.94;4989882;28;20380;-77
2022/08/15 06:48:30;;;;;;;24.75;18.67;;;;;;;;;;4987062;28;20027;-73
2022/08/15 06:50:59;;;;;;;27.70;18.35;;;;;;;21.31;nan;99712.50;4989435;28;20058;-73
2022/08/15 06:53:39;;;;;;;26.25;17.35;;;;;;;21.40;nan;99704.50;4988623;28;20035;-73
2022/08/15 06:56:34;;;;;;;22.20;17.05;;;;;;;21.47;nan;99699.44;4959742;28;20117;-76
2022/08/15 06:59:05;;;;;;;21.38;17.42;;;;;;;21.54;nan;99712.38;4979945;28;20047;-75
2022/08/15 07:01:49;;;;;;;22.40;18.10;;;;;;;21.64;nan;99709.38;4989166;28;20048;-74
2022/08/15 07:04:39;;;;;;;22.00;17.83;;;;;;;21.70;nan;99721.53;4985226;28;20104;-74
2022/08/15 07:07:34;;;;;;;26.20;18.00;;;;;;;21.79;nan;99725.00;4973686;28;20057;-73
2022/08/15 07:10:24;;;;;;;26.50;18.55;;;;;;;21.82;nan;99710.19;4943426;29;20039;-73
2022/08/15 07:13:01;;;;;;;23.90;16.15;;;;;;;21.85;nan;99686.19;4947826;29;20043;-74
2022/08/15 07:15:39;;;;;;;26.48;18.10;;;;;;;21.96;nan;99702.75;4945631;29;20047;-73
2022/08/15 07:18:13;;;;;;;22.77;16.48;;;;;;;22.12;nan;99688.81;4943949;29;20035;-73
2022/08/15 07:20:39;;;;;;;20.80;16.05;;;;;;;22.22;nan;99673.22;4941726;29;20039;-73
2022/08/15 07:23:57;;;;;;;22.42;16.40;;;;;;;22.30;nan;99672.41;4940794;29;20393;-73
2022/08/15 07:26:25;;;;;;;20.00;16.60;;;;;;;22.30;nan;99707.25;4890022;29;20191;-74
2022/08/15 07:28:51;;;;;;;27.55;17.05;;;;;;;22.41;nan;99697.00;4890816;29;20040;-73
2022/08/15 07:31:28;;;;;;;19.08;15.10;;;;;;;22.56;nan;99705.63;4893019;29;20036;-73
2022/08/15 07:33:56;;;;;;;21.77;15.85;;;;;;;22.63;nan;99765.72;4877115;29;20546;-73
2022/08/15 07:36:29;;;;;;;19.05;15.23;;;;;;;22.70;nan;99712.34;4891092;29;20111;-73
2022/08/15 07:38:55;;;;;;;19.33;14.93;;;;;;;22.81;nan;99706.59;4890591;29;20047;-72
2022/08/15 07:41:22;;;;;;;18.70;14.75;;;;;;;22.90;nan;99688.53;4892273;29;20135;-74
2022/08/15 07:43:57;;;;;;;21.33;15.20;;;;;;;22.90;nan;99643.69;4892675;29;20040;-73
2022/08/15 07:46:39;;;;;;;19.40;15.57;;;;;;;23.02;nan;99699.41;4898809;29;20517;-72
2022/08/15 07:49:19;;;;;;;19.63;15.23;;;;;;;23.07;nan;99701.13;4913914;29;20518;-73
2022/08/15 07:51:57;;;;;;;17.80;15.10;;;;;;;23.16;nan;99711.81;4912779;29;20039;-72
2022/08/15 07:54:29;;;;;;;18.50;14.07;;;;;;;23.22;nan;99713.97;4909981;29;20065;-74
2022/08/15 07:56:58;;;;;;;15.93;13.73;;;;;;;23.30;nan;99712.34;4907674;29;20031;-73
2022/08/15 07:59:26;;;;;;;;;;;;;;;23.38;nan;99681.94;4909909;29;20195;-74
2022/08/15 08:02:01;;;;;;;16.90;14.00;;;;;;;23.46;nan;99729.44;4954997;28;19953;-74
2022/08/15 08:04:29;;;;;;;18.17;13.88;;;;;;;23.53;nan;99697.44;4986379;28;20042;-72
2022/08/15 08:07:05;;;;;;;17.80;13.65;;;;;;;23.62;nan;99667.03;4984945;28;20030;-74
2022/08/15 08:09:47;;;;;;;18.50;13.45;;;;;;;23.69;nan;99734.50;4983380;28;20695;-73
2022/08/15 08:12:30;;;;;;;17.30;13.00;;;;;;;23.82;nan;99709.25;4980105;28;20034;-73
2022/08/15 08:15:57;;;;;;;17.85;13.45;;;;;;;23.94;nan;99706.63;4971280;28;20031;-74
2022/08/15 08:18:59;;;;;;;15.15;12.20;;;;;;;24.09;nan;99693.66;4940956;28;20031;-74
2022/08/15 08:21:36;;;;;;;19.63;14.23;;;;;;;24.16;nan;99739.63;4983837;28;20034;-74
2022/08/15 08:24:31;;;;;;;23.52;13.85;;;;;;;24.31;nan;99705.94;4987213;28;20493;-69
2022/08/15 08:27:12;;;;;;;15.95;12.15;;;;;;;24.35;nan;99710.31;4967966;28;20034;-70
2022/08/15 08:29:54;;;;;;;13.98;11.40;;;;;;;24.47;nan;99732.97;4981600;28;20069;-71
2022/08/15 08:32:30;;;;;;;18.55;12.40;;;;;;;24.55;nan;99687.13;4985341;28;20436;-72
2022/08/15 08:35:15;;;;;;;15.27;12.18;;;;;;;24.64;nan;99673.56;4983761;28;20039;-71
2022/08/15 08:38:13;;;;;;;16.38;11.52;;;;;;;24.76;nan;99689.72;4953873;28;20085;-72
2022/08/15 08:43:58;;;;;;;14.32;11.18;;;;;;;24.97;nan;99691.47;4910776;29;20042;-72
2022/08/15 08:46:51;;;;;;;13.90;11.45;;;;;;;25.09;nan;99680.69;4912766;29;20368;-71
2022/08/15 08:49:22;;;;;;;18.52;10.45;;;;;;;25.17;nan;99698.69;4915426;29;20395;-71
2022/08/15 08:52:12;;;;;;;16.92;11.10;;;;;;;25.27;nan;99683.94;4915063;29;20119;-71
2022/08/15 08:55:00;;;;;;;12.43;10.30;;;;;;;25.33;nan;99671.81;4912059;29;20398;-71
2022/08/15 08:57:33;;;;;;;12.80;10.63;;;;;;;25.52;nan;99691.94;4913126;29;20101;-74
2022/08/15 09:00:32;;;;;;;16.17;10.60;;;;;;;25.67;nan;99712.81;4915043;29;20036;-71
2022/08/15 09:03:17;;;;;;;13.05;10.10;;;;;;;25.77;nan;99695.34;4914877;29;20040;-74
2022/08/15 09:05:49;;;;;;;12.73;10.73;;;;;;;25.87;nan;99692.94;4893017;29;20045;-70
2022/08/15 09:08:24;;;;;;;14.57;10.23;;;;;;;25.96;nan;99692.03;4916074;29;20097;-71
2022/08/15 09:10:54;;;;;;;14.77;10.30;;;;;;;26.02;nan;99709.50;4912463;29;20059;-71
2022/08/15 09:13:33;;;;;;;13.52;9.90;;;;;;;26.14;nan;99655.47;4911826;29;20048;-71
2022/08/15 09:16:08;;;;;;;13.80;9.65;;;;;;;26.23;nan;99728.97;4898550;29;20039;-71
2022/08/15 09:18:41;;;;;;;12.57;9.65;;;;;;;26.32;nan;99658.63;4913275;29;20099;-71
2022/08/15 09:21:06;;;;;;;15.00;9.40;;;;;;;26.40;nan;99683.88;4968778;28;20069;-71
2022/08/15 09:23:39;;;;;;;11.73;10.00;;;;;;;26.56;nan;99702.81;4991213;28;20062;-72
2022/08/15 09:26:19;;;;;;;11.50;9.38;;;;;;;26.64;nan;99699.13;4992028;28;20529;-71
2022/08/15 09:28:57;;;;;;;10.27;8.85;;;;;;;26.74;nan;99698.59;4986416;28;20129;-71
2022/08/15 09:31:29;;;;;;;11.45;8.73;;;;;;;26.84;nan;99678.34;4986651;28;20031;-71
2022/08/15 09:34:16;;;;;;;11.40;9.07;;;;;;;26.95;nan;99665.88;4985556;28;20030;-71
2022/08/15 09:37:13;;;;;;;9.85;8.77;;;;;;;27.05;nan;99672.63;4983056;28;20030;-71
2022/08/15 09:40:16;;;;;;;12.02;9.02;;;;;;;27.15;nan;99685.59;4942566;28;20077;-71
2022/08/15 09:42:59;;;;;;;12.75;8.50;;;;;;;27.25;nan;99676.97;4984440;28;20058;-71
2022/08/15 09:46:05;;;;;;;11.07;8.13;;;;;;;27.35;nan;99692.63;4989597;28;20038;-71
2022/08/15 09:48:46;;;;;;;13.57;8.85;;;;;;;27.47;nan;99677.41;4924430;29;20032;-71
2022/08/15 09:51:22;;;;;;;11.90;8.88;;;;;;;27.54;nan;99691.06;4923497;29;20044;-72
2022/08/15 09:54:03;;;;;;;14.73;10.00;;;;;;;27.64;nan;99679.66;4923617;29;20082;-72
2022/08/15 09:56:33;;;;;;;8.95;7.78;;;;;;;27.75;nan;99677.13;4924178;29;20044;-72
2022/08/15 09:59:27;;;;;;;8.88;7.97;;;;;;;27.88;nan;99691.34;4924161;29;20553;-71
2022/08/15 10:02:09;;;;;;;10.52;7.85;;;;;;;27.96;nan;99682.97;4909207;29;20051;-72
2022/08/15 10:05:01;;;;;;;8.98;8.02;;;;;;;28.02;nan;99666.47;4925200;29;20131;-72
2022/08/15 10:07:32;;;;;;;11.82;8.20;;;;;;;28.11;nan;99651.53;4920724;29;20039;-71
2022/08/15 10:10:00;;;;;;;13.77;8.57;;;;;;;28.28;nan;99642.13;4922146;29;20438;-71
2022/08/15 10:12:27;;;;;;;9.83;8.30;;;;;;;28.30;nan;99672.34;4927547;29;20047;-72
2022/08/15 10:14:52;;;;;;;10.77;8.43;;;;;;;28.36;nan;99661.97;4930061;29;20274;-71
2022/08/15 10:17:34;;;;;;;12.23;9.20;;;;;;;28.43;nan;99662.09;4924169;29;20098;-72
2022/08/15 10:20:18;;;;;;;11.60;8.05;;;;;;;28.61;nan;99652.34;4964642;28;20038;-71
2022/08/15 10:23:13;;;;;;;11.32;7.55;;;;;;;28.78;nan;99637.50;4989743;28;20380;-71
2022/08/15 10:25:45;;;;;;;8.43;7.47;;;;;;;28.84;nan;99662.34;4989326;28;20041;-71
2022/08/15 10:28:11;;;;;;;9.70;7.20;;;;;;;29.02;nan;99646.28;4939095;28;1210725;-73
2022/08/15 10:30:46;;;;;;;10.13;7.97;;;;;;;29.08;nan;99644.09;4985020;28;20042;-72
2022/08/15 10:33:29;;;;;;;13.70;7.47;;;;;;;29.19;nan;99643.06;4985913;28;20093;-70
2022/08/15 10:36:03;;;;;;;9.38;6.88;;;;;;;29.29;nan;99633.50;4988225;28;20365;-72
2022/08/15 10:38:30;;;;;;;9.82;8.38;;;;;;;29.40;nan;99601.88;4988026;28;20404;-71
2022/08/15 10:41:34;;;;;;;8.75;7.03;;;;;;;29.54;nan;99632.97;4977591;28;20671;-72
2022/08/15 10:44:25;;;;;;;7.93;6.03;;;;;;;29.56;nan;99614.41;4990001;28;20030;-72
2022/08/15 10:47:32;;;;;;;8.82;6.43;;;;;;;29.72;nan;99636.69;4985196;28;20054;-71
2022/08/15 10:50:19;;;;;;;14.13;6.60;;;;;;;29.73;nan;99624.69;4952042;28;20606;-71
2022/08/15 10:52:47;;;;;;;7.38;6.43;;;;;;;29.69;nan;99637.44;4979960;28;20041;-70
2022/08/15 10:55:32;;;;;;;9.00;6.50;;;;;;;29.66;nan;99627.28;4982933;28;20045;-72
2022/08/15 10:58:27;;;;;;;9.48;6.50;;;;;;;29.76;nan;99617.72;4988837;28;20038;-70
2022/08/15 11:01:06;;;;;;;9.95;7.30;;;;;;;29.77;nan;99537.88;4984058;28;20177;-72
2022/08/15 11:03:44;;;;;;;8.32;6.65;;;;;;;29.88;nan;99609.28;4987314;28;20070;-71
2022/08/15 11:06:13;;;;;;;7.97;6.45;;;;;;;29.92;nan;99585.69;4987669;28;20388;-71
2022/08/15 11:08:46;;;;;;;9.07;6.53;;;;;;;29.96;nan;99600.06;4988023;28;20088;-71
2022/08/15 11:11:12;;;;;;;9.60;6.65;;;;;;;30.05;nan;99569.88;4981634;28;20042;-71
2022/08/15 11:13:41;;;;;;;10.40;6.55;;;;;;;30.15;nan;99571.13;4988919;28;20035;-71
2022/08/15 11:16:13;;;;;;;10.18;6.18;;;;;;;30.28;nan;99594.91;4988148;28;20047;-72
2022/08/15 11:18:48;;;;;;;9.15;6.78;;;;;;;30.37;nan;99575.56;4988772;28;20531;-72
2022/08/15 11:21:18;;;;;;;7.25;6.10;;;;;;;30.46;nan;99586.09;4989606;28;20026;-72
2022/08/15 11:24:10;;;;;;;8.88;6.47;;;;;;;30.63;nan;99571.06;4989107;28;20042;-71
2022/08/15 11:26:42;;;;;;;8.57;6.00;;;;;;;30.73;nan;99581.19;4993267;28;20117;-70
2022/08/15 11:29:22;;;;;;;10.60;6.30;;;;;;;30.82;nan;99624.34;4992061;28;20043;-71
2022/08/15 11:31:58;;;;;;;7.85;6.00;;;;;;;30.90;nan;99566.13;4986831;28;20121;-72
2022/08/15 11:34:31;;;;;;;6.40;5.57;;;;;;;30.91;nan;99554.91;4990906;28;20030;-73
2022/08/15 11:37:11;;;;;;;10.63;6.22;;;;;;;30.97;nan;99555.28;4983583;28;20031;-73
2022/08/15 11:39:41;;;;;;;10.52;6.22;;;;;;;30.98;nan;99537.03;4986088;28;20042;-74
2022/08/15 11:42:10;;;;;;;7.07;6.07;;;;;;;31.04;nan;99551.81;4986916;28;20065;-72
2022/08/15 11:44:56;;;;;;;6.47;5.60;;;;;;;31.01;nan;99555.28;4991668;28;20030;-72
2022/08/15 11:47:22;;;;;;;7.03;6.30;;;;;;;30.99;nan;99544.03;4985924;28;20042;-72
2022/08/15 11:49:54;;;;;;;8.55;5.95;;;;;;;31.00;nan;99532.75;4988711;28;20101;-72
2022/08/15 11:52:24;;;;;;;7.50;5.50;;;;;;;31.12;nan;99543.28;4990985;28;20027;-74
2022/08/15 11:55:10;;;;;;;6.32;5.63;;;;;;;31.20;nan;99557.69;4990988;28;20057;-73
2022/08/15 11:57:51;;;;;;;8.85;5.68;;;;;;;31.21;nan;99550.31;4993572;28;20106;-72
2022/08/15 12:00:25;;;;;;;7.47;5.20;;;;;;;31.25;nan;99542.94;4986746;28;20066;-73
2022/08/15 12:02:51;;;;;;;8.43;5.43;;;;;;;31.48;nan;99527.03;4986732;28;20038;-72
2022/08/15 12:05:31;;;;;;;9.40;5.57;;;;;;;31.50;nan;99535.59;4984838;28;20709;-73
2022/08/15 12:07:59;;;;;;;6.43;5.65;;;;;;;31.59;nan;99543.38;4984314;28;20066;-73
2022/08/15 12:10:30;;;;;;;8.50;5.78;;;;;;;31.63;nan;99546.09;4986358;28;20089;-74
2022/08/15 12:12:55;;;;;;;9.52;5.20;;;;;;;31.70;nan;99465.25;4987362;28;20034;-73
2022/08/15 12:15:40;;;;;;;7.50;5.30;;;;;;;31.82;nan;99542.97;4985242;28;20034;-72
2022/08/15 12:18:08;;;;;;;5.28;4.53;;;;;;;31.95;nan;99514.22;4983855;28;20121;-73
2022/08/15 12:20:47;;;;;;;8.07;4.95;;;;;;;32.01;nan;99520.03;4985345;28;20096;-74